Time;durP1;ratioP1;P1;durP2;ratioP2;P2;SDS_P1;SDS_P2;PMS_P1;PMS_P2;Temp;Humidity;BMP_temperature;BMP_pressure;BME280_temperature;BME280_humidity;BME280_pressure;Samples;Min_cycle;Max_cycle;Signal;HPM_P1;HPM_P2
2022/07/15 00:00:27;;;;;;;6.38;2.17;;;22.30;94.10;;;;;;4996143;28;20496;-71
2022/07/15 00:02:53;;;;;;;6.40;1.90;;;22.20;94.30;;;;;;4996581;28;20064;-70
2022/07/15 00:05:19;;;;;;;2.97;1.80;;;22.20;94.30;;;;;;4997026;28;20537;-70
2022/07/15 00:07:45;;;;;;;2.92;1.98;;;22.20;94.30;;;;;;4997630;28;20519;-71
2022/07/15 00:10:14;;;;;;;3.28;2.08;;;22.20;94.40;;;;;;4996955;28;20027;-70
2022/07/15 00:12:45;;;;;;;2.58;1.70;;;22.10;94.40;;;;;;5000178;28;20141;-71
2022/07/15 00:15:11;;;;;;;3.17;2.10;;;22.10;94.50;;;;;;4995905;28;20069;-71
2022/07/15 00:17:37;;;;;;;3.08;1.60;;;22.10;94.60;;;;;;4997559;28;20029;-71
2022/07/15 00:20:03;;;;;;;3.83;2.05;;;22.10;94.70;;;;;;4996985;28;20403;-71
2022/07/15 00:22:29;;;;;;;3.45;1.85;;;22.00;94.70;;;;;;4997648;28;20014;-71
2022/07/15 00:24:55;;;;;;;3.13;1.85;;;22.00;94.70;;;;;;4996803;28;20034;-71
2022/07/15 00:27:20;;;;;;;2.85;1.70;;;22.00;94.70;;;;;;4997141;28;20037;-71
2022/07/15 00:29:46;;;;;;;2.95;2.00;;;22.00;94.90;;;;;;4993306;28;20034;-71
2022/07/15 00:32:12;;;;;;;2.50;1.85;;;22.00;94.70;;;;;;4992746;28;20029;-71
2022/07/15 00:34:37;;;;;;;1.95;1.75;;;22.00;94.60;;;;;;4994304;28;20061;-71
2022/07/15 00:37:04;;;;;;;4.20;1.80;;;22.00;94.80;;;;;;4993870;28;20018;-71
2022/07/15 00:39:30;;;;;;;2.08;1.88;;;22.00;94.80;;;;;;4992554;28;20510;-71
2022/07/15 00:41:55;;;;;;;2.13;1.90;;;22.00;94.90;;;;;;4996578;28;20030;-71
2022/07/15 00:44:21;;;;;;;4.18;1.70;;;21.90;95.00;;;;;;4993900;28;20393;-70
2022/07/15 00:46:47;;;;;;;5.35;1.90;;;21.90;94.90;;;;;;4993881;28;20026;-71
2022/07/15 00:49:13;;;;;;;2.65;1.92;;;21.90;94.90;;;;;;4995362;28;20049;-71
2022/07/15 00:51:44;;;;;;;4.85;1.90;;;21.80;95.00;;;;;;4993468;28;20046;-71
2022/07/15 00:54:12;;;;;;;3.40;1.90;;;21.80;95.10;;;;;;4992273;28;20069;-71
2022/07/15 00:56:50;;;;;;;2.22;1.73;;;21.80;95.10;;;;;;4989638;28;20026;-71
2022/07/15 00:59:19;;;;;;;3.97;2.25;;;21.80;95.10;;;;;;4993808;28;20062;-72
2022/07/15 01:01:48;;;;;;;2.15;1.95;;;21.80;95.10;;;;;;4993503;28;20057;-70
2022/07/15 01:04:16;;;;;;;1.75;1.65;;;21.80;94.90;;;;;;4993480;28;20129;-70
2022/07/15 01:06:42;;;;;;;2.00;1.90;;;21.80;95.00;;;;;;4992164;28;20509;-71
2022/07/15 01:09:08;;;;;;;1.88;1.67;;;21.80;95.10;;;;;;4993649;28;20026;-70
2022/07/15 01:11:35;;;;;;;2.50;1.83;;;21.70;95.10;;;;;;4993434;28;20109;-70
2022/07/15 01:14:02;;;;;;;2.53;1.98;;;21.70;95.30;;;;;;4993510;28;20073;-71
2022/07/15 01:16:28;;;;;;;1.95;1.83;;;21.70;95.30;;;;;;4993359;28;20477;-70
2022/07/15 01:18:54;;;;;;;2.13;1.83;;;21.70;95.30;;;;;;4992226;28;20045;-71
2022/07/15 01:21:20;;;;;;;2.95;1.77;;;21.70;95.30;;;;;;4992379;28;20019;-70
2022/07/15 01:23:46;;;;;;;5.57;1.83;;;21.70;95.40;;;;;;4991440;28;20068;-70
2022/07/15 01:26:13;;;;;;;1.90;1.70;;;21.60;95.40;;;;;;4987615;28;20062;-70
2022/07/15 01:28:40;;;;;;;2.10;1.85;;;21.60;95.40;;;;;;4992066;28;20041;-71
2022/07/15 01:31:06;;;;;;;4.10;1.70;;;21.60;95.40;;;;;;4992490;28;20026;-70
2022/07/15 01:33:32;;;;;;;2.00;1.80;;;21.60;95.30;;;;;;4993519;28;20049;-70
2022/07/15 01:35:59;;;;;;;2.47;1.85;;;21.60;95.30;;;;;;4992392;28;20101;-70
2022/07/15 01:38:26;;;;;;;1.83;1.48;;;21.60;95.30;;;;;;4993232;28;20382;-70
2022/07/15 01:40:52;;;;;;;2.42;1.70;;;21.60;95.30;;;;;;4993744;28;20450;-70
2022/07/15 01:43:18;;;;;;;1.80;1.50;;;21.60;95.30;;;;;;4993509;28;20509;-70
2022/07/15 01:45:45;;;;;;;2.35;1.98;;;21.50;95.20;;;;;;4992496;28;20085;-70
2022/07/15 01:49:21;;;;;;;3.03;1.70;;;21.50;95.20;;;;;;4992916;28;20049;-70
2022/07/15 01:50:58;;;;;;;4.82;2.17;;;21.50;95.30;;;;;;4997657;28;20045;-70
2022/07/15 01:53:25;;;;;;;2.33;2.00;;;21.50;95.30;;;;;;4993101;28;20037;-70
2022/07/15 01:55:51;;;;;;;2.60;1.70;;;21.50;95.40;;;;;;4992118;28;20026;-70
2022/07/15 01:58:18;;;;;;;2.28;1.90;;;21.50;95.40;;;;;;4992879;28;20093;-70
2022/07/15 02:00:44;;;;;;;2.03;1.50;;;21.50;95.40;;;;;;4992155;28;20374;-70
2022/07/15 02:03:09;;;;;;;1.73;1.63;;;21.50;95.40;;;;;;4992590;28;20053;-70
2022/07/15 02:05:36;;;;;;;2.40;1.80;;;21.50;95.40;;;;;;4991948;28;20385;-70
2022/07/15 02:08:02;;;;;;;3.50;1.85;;;21.50;95.50;;;;;;4992805;28;20029;-70
2022/07/15 02:10:39;;;;;;;2.97;1.83;;;21.40;95.40;;;;;;4990606;28;20029;-70
2022/07/15 02:13:13;;;;;;;3.70;1.77;;;21.40;95.40;;;;;;4993738;28;20033;-70
2022/07/15 02:15:40;;;;;;;2.15;1.70;;;21.50;95.50;;;;;;4992075;28;20029;-70
2022/07/15 02:18:07;;;;;;;2.90;1.63;;;21.40;95.50;;;;;;4992791;28;20397;-70
2022/07/15 02:20:33;;;;;;;2.47;1.67;;;21.40;95.50;;;;;;4993077;28;20397;-70
2022/07/15 02:23:01;;;;;;;2.80;1.55;;;21.40;95.70;;;;;;4992619;28;20022;-70
2022/07/15 02:25:30;;;;;;;3.05;2.00;;;21.40;95.70;;;;;;4991776;28;20031;-70
2022/07/15 02:27:57;;;;;;;2.00;1.70;;;21.40;95.80;;;;;;4992625;28;20112;-70
2022/07/15 02:30:25;;;;;;;2.45;1.92;;;21.40;95.90;;;;;;4990220;28;20404;-70
2022/07/15 02:32:50;;;;;;;3.35;1.73;;;21.40;95.80;;;;;;4992315;28;20034;-71
2022/07/15 02:35:16;;;;;;;2.95;1.90;;;21.40;95.90;;;;;;4990346;28;20604;-70
2022/07/15 02:37:42;;;;;;;5.43;2.00;;;21.30;95.90;;;;;;4992120;28;20050;-71
2022/07/15 02:40:09;;;;;;;3.13;1.67;;;21.30;96.00;;;;;;4991234;28;20119;-70
2022/07/15 02:42:35;;;;;;;3.72;1.77;;;21.30;96.10;;;;;;4990954;28;20165;-70
2022/07/15 02:45:01;;;;;;;4.13;1.80;;;21.20;96.20;;;;;;4991395;28;20033;-70
2022/07/15 02:47:27;;;;;;;1.77;1.67;;;21.30;96.20;;;;;;4990785;28;20241;-71
2022/07/15 02:49:53;;;;;;;2.42;1.95;;;21.20;96.30;;;;;;4992695;28;20022;-70
2022/07/15 02:52:18;;;;;;;1.98;1.73;;;21.30;96.40;;;;;;4991238;28;20037;-70
2022/07/15 02:54:44;;;;;;;3.35;1.75;;;21.20;96.40;;;;;;4991576;28;20045;-70
2022/07/15 02:57:10;;;;;;;3.55;1.92;;;21.20;96.50;;;;;;4991767;28;20504;-70
2022/07/15 02:59:35;;;;;;;5.15;2.03;;;21.20;96.50;;;;;;4991777;28;20042;-70
2022/07/15 03:02:01;;;;;;;4.25;1.75;;;21.20;96.50;;;;;;4991470;28;20027;-70
2022/07/15 03:04:27;;;;;;;1.95;1.65;;;21.20;96.40;;;;;;4991566;28;20520;-70
2022/07/15 03:06:53;;;;;;;2.25;1.70;;;21.20;96.50;;;;;;4991296;28;20026;-70
2022/07/15 03:09:18;;;;;;;2.85;1.92;;;21.20;96.50;;;;;;4990324;28;20297;-71
2022/07/15 03:11:44;;;;;;;2.20;2.00;;;21.20;96.50;;;;;;4994161;28;20022;-70
2022/07/15 03:14:10;;;;;;;1.92;1.70;;;21.20;96.70;;;;;;4991157;28;20133;-70
2022/07/15 03:16:36;;;;;;;2.55;1.80;;;21.20;96.70;;;;;;4991302;28;20014;-70
2022/07/15 03:19:01;;;;;;;4.53;1.70;;;21.10;96.60;;;;;;4990043;28;20029;-71
2022/07/15 03:21:27;;;;;;;3.20;1.92;;;21.20;96.60;;;;;;4992729;28;20061;-70
2022/07/15 03:23:54;;;;;;;2.40;1.75;;;21.20;96.70;;;;;;4991263;28;20027;-70
2022/07/15 03:26:20;;;;;;;3.88;1.73;;;21.10;96.70;;;;;;4989077;28;20022;-70
2022/07/15 03:28:46;;;;;;;2.53;1.80;;;21.20;96.70;;;;;;4991344;28;20019;-70
2022/07/15 03:31:12;;;;;;;2.25;1.90;;;21.20;96.50;;;;;;4990336;28;20486;-70
2022/07/15 03:33:38;;;;;;;2.30;2.10;;;21.20;96.40;;;;;;4991632;28;20042;-70
2022/07/15 03:36:05;;;;;;;4.88;2.03;;;21.20;96.30;;;;;;4990700;28;20034;-70
2022/07/15 03:38:31;;;;;;;2.60;1.65;;;21.20;96.10;;;;;;4991561;28;20125;-70
2022/07/15 03:40:57;;;;;;;3.97;1.85;;;21.20;96.00;;;;;;4990707;28;20029;-70
2022/07/15 03:43:26;;;;;;;1.60;1.50;;;21.20;95.80;;;;;;4991115;28;20026;-70
2022/07/15 03:45:52;;;;;;;2.92;1.73;;;21.30;95.70;;;;;;4990764;28;20022;-70
2022/07/15 03:48:18;;;;;;;1.75;1.65;;;21.30;95.50;;;;;;4990470;28;20100;-72
2022/07/15 03:50:44;;;;;;;5.00;1.88;;;21.30;95.40;;;;;;4991593;28;20429;-71
2022/07/15 03:53:10;;;;;;;4.72;1.30;;;21.30;95.20;;;;;;4989912;28;20028;-71
2022/07/15 03:55:37;;;;;;;2.72;1.40;;;21.30;95.20;;;;;;4990782;28;20030;-72
2022/07/15 03:58:04;;;;;;;2.67;1.67;;;21.40;95.10;;;;;;4991286;28;20025;-72
2022/07/15 04:00:30;;;;;;;1.75;1.48;;;21.40;95.00;;;;;;4989030;28;20100;-72
2022/07/15 04:02:56;;;;;;;1.55;1.42;;;21.40;94.90;;;;;;4991392;28;20047;-72
2022/07/15 04:05:21;;;;;;;1.50;1.33;;;21.40;94.70;;;;;;4994112;28;20038;-71
2022/07/15 04:07:47;;;;;;;2.00;1.60;;;21.40;94.50;;;;;;4991791;28;20033;-71
2022/07/15 04:10:14;;;;;;;5.20;1.70;;;21.50;94.50;;;;;;4994164;28;20105;-71
2022/07/15 04:12:41;;;;;;;3.08;1.35;;;21.50;94.40;;;;;;4997339;28;20037;-72
2022/07/15 04:15:07;;;;;;;3.15;1.70;;;21.50;94.40;;;;;;4994180;28;20026;-72
2022/07/15 04:17:33;;;;;;;2.83;1.50;;;21.60;94.20;;;;;;4993033;28;20026;-71
2022/07/15 04:19:59;;;;;;;2.97;1.83;;;21.70;94.10;;;;;;4989193;28;20026;-71
2022/07/15 04:22:24;;;;;;;1.90;1.70;;;21.70;94.00;;;;;;4993289;28;20027;-71
2022/07/15 04:24:50;;;;;;;1.80;1.60;;;21.70;94.00;;;;;;4993258;28;20113;-72
2022/07/15 04:27:16;;;;;;;5.35;1.60;;;21.80;93.90;;;;;;4993933;28;20080;-71
2022/07/15 04:29:42;;;;;;;1.60;1.50;;;21.80;93.80;;;;;;4992143;28;20027;-70
2022/07/15 04:32:07;;;;;;;1.92;1.35;;;21.80;93.70;;;;;;4993134;28;20026;-70
2022/07/15 04:34:33;;;;;;;1.48;1.38;;;21.90;93.70;;;;;;4991287;28;20031;-69
2022/07/15 04:36:59;;;;;;;1.38;1.27;;;21.90;93.50;;;;;;4992246;28;20173;-70
2022/07/15 04:39:24;;;;;;;1.80;1.40;;;22.00;93.40;;;;;;4994005;28;20058;-71
2022/07/15 04:41:51;;;;;;;18.52;1.90;;;22.10;93.30;;;;;;4995251;28;20477;-69
2022/07/15 04:44:18;;;;;;;1.80;1.48;;;22.10;93.20;;;;;;4993731;28;20026;-69
2022/07/15 04:46:44;;;;;;;1.20;1.10;;;22.10;93.10;;;;;;4992485;28;20026;-69
2022/07/15 04:51:53;;;;;;;1.30;1.20;;;22.20;92.90;;;;;;4991792;28;20041;-69
2022/07/15 04:54:19;;;;;;;3.28;1.40;;;22.30;92.80;;;;;;4993609;28;20042;-69
2022/07/15 04:56:45;;;;;;;2.33;1.50;;;22.30;92.70;;;;;;4993930;28;20389;-69
2022/07/15 04:59:11;;;;;;;2.67;1.23;;;22.40;92.70;;;;;;4992362;28;20023;-69
2022/07/15 05:01:37;;;;;;;2.90;1.50;;;22.40;92.50;;;;;;4993546;28;20030;-69
2022/07/15 05:04:03;;;;;;;3.58;1.60;;;22.50;92.40;;;;;;4993663;28;20058;-69
2022/07/15 05:06:29;;;;;;;2.35;1.52;;;22.60;92.30;;;;;;4993552;28;20046;-69
2022/07/15 05:08:55;;;;;;;3.13;1.77;;;22.70;92.70;;;;;;4993533;28;20124;-70
2022/07/15 05:11:21;;;;;;;2.00;1.50;;;22.70;92.30;;;;;;4995866;28;20019;-69
2022/07/15 05:13:46;;;;;;;2.75;1.20;;;22.80;92.20;;;;;;4993241;28;20121;-69
2022/07/15 05:16:12;;;;;;;1.27;1.15;;;22.90;92.10;;;;;;4993073;28;20030;-69
2022/07/15 05:18:38;;;;;;;2.17;1.30;;;22.90;91.90;;;;;;4993920;28;20061;-71
2022/07/15 05:21:04;;;;;;;2.60;1.27;;;23.00;91.90;;;;;;4993824;28;20031;-70
2022/07/15 05:23:30;;;;;;;1.30;1.20;;;23.10;91.80;;;;;;4993595;28;20026;-70
2022/07/15 05:25:55;;;;;;;2.75;1.20;;;23.10;91.80;;;;;;4992925;28;20092;-69
2022/07/15 05:28:21;;;;;;;3.22;1.45;;;23.20;91.80;;;;;;4993540;28;20679;-70
2022/07/15 05:30:47;;;;;;;1.48;1.38;;;23.30;91.70;;;;;;4992671;28;20026;-70
2022/07/15 05:33:16;;;;;;;2.90;1.48;;;23.40;91.50;;;;;;4993489;28;20482;-70
2022/07/15 05:35:41;;;;;;;1.45;1.10;;;23.40;91.50;;;;;;4992668;28;20234;-70
2022/07/15 05:38:07;;;;;;;2.42;1.67;;;23.50;91.60;;;;;;4993438;28;20080;-70
2022/07/15 05:40:33;;;;;;;1.55;1.30;;;23.60;91.40;;;;;;4991692;28;20492;-70
2022/07/15 05:42:59;;;;;;;4.88;1.38;;;23.70;91.50;;;;;;4994917;28;20062;-70
2022/07/15 05:45:25;;;;;;;2.80;1.35;;;23.70;91.40;;;;;;4992658;28;20101;-70
2022/07/15 05:47:51;;;;;;;5.47;1.40;;;23.80;91.10;;;;;;4993273;28;20076;-71
2022/07/15 05:50:18;;;;;;;4.75;1.58;;;23.90;91.20;;;;;;4993596;28;20109;-70
2022/07/15 05:52:44;;;;;;;1.30;1.20;;;24.00;90.90;;;;;;4993003;28;20580;-70
2022/07/15 05:55:10;;;;;;;1.67;1.35;;;24.10;91.00;;;;;;4992365;28;20085;-71
2022/07/15 05:57:36;;;;;;;3.85;1.27;;;24.20;90.90;;;;;;4992957;28;20041;-69
2022/07/15 06:00:04;;;;;;;3.80;1.10;;;24.30;90.90;;;;;;4990750;28;20026;-69
2022/07/15 06:02:30;;;;;;;1.50;1.40;;;24.30;90.80;;;;;;4992700;28;20030;-71
2022/07/15 06:04:56;;;;;;;5.32;1.25;;;24.40;90.90;;;;;;4992253;28;20038;-70
2022/07/15 06:07:22;;;;;;;2.40;1.27;;;24.50;90.60;;;;;;4992433;28;20031;-70
2022/07/15 06:09:50;;;;;;;3.88;1.65;;;24.60;90.60;;;;;;4990947;28;20035;-69
2022/07/15 06:12:17;;;;;;;7.80;1.40;;;24.60;90.70;;;;;;4994897;28;20031;-69
2022/07/15 06:14:43;;;;;;;2.53;1.38;;;24.70;90.40;;;;;;4990795;28;20034;-70
2022/07/15 06:17:08;;;;;;;5.50;1.48;;;24.80;90.50;;;;;;4991416;28;20050;-70
2022/07/15 06:19:34;;;;;;;2.70;1.25;;;24.90;90.50;;;;;;4993646;28;20066;-70
2022/07/15 06:22:00;;;;;;;6.15;1.60;;;25.00;90.40;;;;;;4991960;28;20030;-78
2022/07/15 06:24:26;;;;;;;7.82;2.08;;;25.10;90.30;;;;;;4990848;28;20473;-72
2022/07/15 06:26:52;;;;;;;8.13;1.67;;;25.10;90.10;;;;;;4991364;28;20022;-76
2022/07/15 06:29:18;;;;;;;10.15;1.70;;;25.20;90.20;;;;;;4991999;28;20057;-74
2022/07/15 06:31:43;;;;;;;7.82;2.00;;;25.40;90.40;;;;;;4992143;28;20030;-74
2022/07/15 06:34:09;;;;;;;9.20;1.83;;;25.40;90.40;;;;;;4992152;28;20034;-76
2022/07/15 06:36:35;;;;;;;8.45;2.30;;;25.50;90.20;;;;;;4991625;28;20189;-73
2022/07/15 06:39:01;;;;;;;5.25;1.50;;;25.60;90.30;;;;;;4991832;28;20092;-73
2022/07/15 06:41:26;;;;;;;3.30;1.55;;;25.70;90.20;;;;;;4994216;28;20037;-71
2022/07/15 06:43:52;;;;;;;5.85;1.73;;;25.80;90.20;;;;;;4990417;28;20350;-72
2022/07/15 06:46:18;;;;;;;4.93;1.73;;;25.90;90.10;;;;;;4990456;28;20413;-72
2022/07/15 06:48:43;;;;;;;5.07;2.10;;;26.00;90.00;;;;;;4991905;28;20104;-72
2022/07/15 06:51:09;;;;;;;7.75;1.70;;;26.10;90.10;;;;;;4991416;28;20023;-72
2022/07/15 06:53:36;;;;;;;5.53;1.70;;;26.20;90.10;;;;;;4992167;28;20038;-72
2022/07/15 06:56:02;;;;;;;3.15;2.05;;;26.30;90.00;;;;;;4991484;28;20030;-72
2022/07/15 06:58:27;;;;;;;9.13;1.88;;;26.30;90.00;;;;;;4992142;28;20421;-72
2022/07/15 07:00:53;;;;;;;4.60;1.80;;;26.40;90.20;;;;;;4989922;28;20030;-72
2022/07/15 07:03:19;;;;;;;3.88;1.55;;;26.50;90.20;;;;;;4990523;28;20050;-71
2022/07/15 07:05:44;;;;;;;1.92;1.70;;;26.60;90.30;;;;;;4989906;28;20054;-72
2022/07/15 07:08:10;;;;;;;4.43;1.63;;;26.70;90.20;;;;;;4991671;28;20401;-73
2022/07/15 07:10:36;;;;;;;1.67;1.40;;;26.80;90.30;;;;;;4990593;28;20026;-71
2022/07/15 07:13:02;;;;;;;6.53;2.10;;;27.00;90.40;;;;;;4993044;28;20027;-71
2022/07/15 07:15:27;;;;;;;2.67;2.25;;;27.00;90.40;;;;;;4989692;28;20038;-72
2022/07/15 07:17:54;;;;;;;2.53;1.73;;;27.20;90.40;;;;;;4990447;28;20019;-72
2022/07/15 07:20:20;;;;;;;3.88;2.40;;;27.20;90.50;;;;;;4992200;28;20030;-72
2022/07/15 07:22:46;;;;;;;7.53;2.17;;;27.40;90.40;;;;;;4990205;28;20478;-72
2022/07/15 07:25:11;;;;;;;7.95;2.22;;;27.50;90.60;;;;;;4989531;28;21166;-71
2022/07/15 07:27:37;;;;;;;6.13;2.13;;;27.70;90.90;;;;;;4991724;28;20528;-71
2022/07/15 07:30:04;;;;;;;6.10;2.25;;;27.80;90.20;;;;;;4990922;28;20165;-71
2022/07/15 07:32:31;;;;;;;6.03;2.30;;;27.90;90.60;;;;;;4991491;28;20014;-71
2022/07/15 07:34:57;;;;;;;7.60;2.17;;;28.00;90.30;;;;;;4991159;28;20034;-71
2022/07/15 07:37:23;;;;;;;2.60;2.05;;;28.10;90.20;;;;;;4990892;28;20758;-70
2022/07/15 07:39:49;;;;;;;11.05;2.55;;;28.20;90.30;;;;;;4994942;28;20153;-70
2022/07/15 07:42:16;;;;;;;20.08;3.85;;;28.40;90.60;;;;;;4992998;28;20046;-70
2022/07/15 07:44:44;;;;;;;3.80;1.90;;;28.70;86.40;;;;;;4995029;28;20031;-70
2022/07/15 07:47:10;;;;;;;3.38;1.73;;;28.70;90.00;;;;;;4993011;28;20254;-71
2022/07/15 07:49:36;;;;;;;6.32;2.20;;;28.70;91.30;;;;;;4996279;28;20034;-70
2022/07/15 07:52:02;;;;;;;5.68;2.22;;;28.60;91.10;;;;;;4994846;28;20031;-71
2022/07/15 07:54:29;;;;;;;7.47;2.63;;;28.60;91.90;;;;;;4993248;28;20139;-71
2022/07/15 07:56:55;;;;;;;5.32;2.33;;;28.40;92.70;;;;;;4994790;28;20548;-71
2022/07/15 07:59:21;;;;;;;9.68;2.95;;;28.40;93.50;;;;;;4994990;28;20038;-71
2022/07/15 08:01:47;;;;;;;9.35;2.72;;;28.40;95.20;;;;;;4994742;28;20019;-70
2022/07/15 08:04:14;;;;;;;5.97;2.53;;;28.30;95.30;;;;;;4994626;28;20097;-71
2022/07/15 08:06:40;;;;;;;8.10;2.65;;;28.10;96.40;;;;;;4993412;28;20026;-71
2022/07/15 08:09:06;;;;;;;13.32;2.22;;;28.00;96.80;;;;;;4994443;28;20076;-72
2022/07/15 08:11:32;;;;;;;11.27;2.40;;;28.10;96.40;;;;;;4994575;28;20497;-71
2022/07/15 08:13:57;;;;;;;5.10;2.05;;;27.90;97.00;;;;;;4994694;28;20489;-72
2022/07/15 08:16:24;;;;;;;7.50;2.22;;;27.90;96.30;;;;;;4994358;28;20026;-72
2022/07/15 08:18:50;;;;;;;4.68;1.80;;;27.80;93.80;;;;;;4993540;28;20027;-71
2022/07/15 08:21:16;;;;;;;5.75;1.92;;;27.80;92.20;;;;;;4995595;28;20026;-72
2022/07/15 08:23:42;;;;;;;7.38;2.05;;;27.70;92.50;;;;;;4994350;28;20500;-71
2022/07/15 08:26:10;;;;;;;8.70;2.10;;;27.60;92.30;;;;;;4993850;28;20029;-71
2022/07/15 08:28:36;;;;;;;11.77;2.58;;;27.60;94.30;;;;;;4994788;28;20496;-70
2022/07/15 08:31:02;;;;;;;5.90;2.15;;;27.40;93.70;;;;;;4993770;28;20027;-70
2022/07/15 08:33:28;;;;;;;5.93;2.50;;;27.40;95.50;;;;;;4993246;28;20492;-70
2022/07/15 08:35:55;;;;;;;5.78;2.20;;;27.40;96.10;;;;;;4993768;28;20057;-71
2022/07/15 08:38:21;;;;;;;3.88;1.92;;;27.30;96.50;;;;;;4984559;28;20041;-70
2022/07/15 08:40:47;;;;;;;7.43;2.00;;;27.30;97.10;;;;;;4995964;28;20034;-71
2022/07/15 08:43:14;;;;;;;6.55;2.20;;;27.30;97.60;;;;;;4994558;28;20027;-71
2022/07/15 08:45:43;;;;;;;6.22;2.03;;;27.20;97.30;;;;;;4993747;28;20027;-71
2022/07/15 08:48:10;;;;;;;2.75;1.98;;;27.20;97.50;;;;;;4994246;28;20485;-72
2022/07/15 08:50:36;;;;;;;3.40;1.48;;;27.20;97.80;;;;;;4993931;28;20470;-73
2022/07/15 08:53:02;;;;;;;2.95;1.63;;;27.20;97.50;;;;;;4994069;28;20030;-72
2022/07/15 08:55:29;;;;;;;6.38;2.03;;;27.30;96.60;;;;;;4993495;28;20030;-72
2022/07/15 08:57:56;;;;;;;3.67;1.65;;;27.40;98.00;;;;;;4992716;28;20110;-71
2022/07/15 09:00:29;;;;;;;7.40;2.38;;;27.40;97.90;;;;;;4993254;28;20035;-72
2022/07/15 09:02:57;;;;;;;3.25;2.00;;;27.30;99.00;;;;;;4993987;28;20040;-70
2022/07/15 09:05:33;;;;;;;2.92;1.70;;;27.30;97.70;;;;;;4992121;28;20061;-72
2022/07/15 09:08:02;;;;;;;4.82;1.70;;;27.40;97.50;;;;;;4992580;28;20149;-71
2022/07/15 09:10:49;;;;;;;9.38;1.73;;;27.60;98.70;;;;;;4992908;28;20030;-72
2022/07/15 09:13:36;;;;;;;5.60;2.58;;;27.70;98.50;;;;;;5008013;28;20112;-71
2022/07/15 09:16:04;;;;;;;3.05;2.03;;;27.80;96.40;;;;;;4992870;28;20037;-71
2022/07/15 09:18:33;;;;;;;6.63;2.05;;;28.00;95.50;;;;;;4992726;28;20029;-72
2022/07/15 09:21:00;;;;;;;5.15;2.15;;;28.10;95.20;;;;;;4994162;28;20026;-71
2022/07/15 09:23:31;;;;;;;5.97;2.08;;;28.20;95.50;;;;;;4994025;28;20033;-72
2022/07/15 09:26:24;;;;;;;9.88;1.95;;;28.20;95.80;;;;;;4992675;28;20085;-71
2022/07/15 09:28:50;;;;;;;7.50;2.17;;;28.30;94.60;;;;;;4993393;28;20118;-71
2022/07/15 09:34:16;;;;;;;10.13;1.90;;;28.50;94.60;;;;;;4992977;28;20472;-71
2022/07/15 09:36:46;;;;;;;2.33;1.50;;;28.70;94.40;;;;;;4992897;28;20018;-71
2022/07/15 09:39:12;;;;;;;5.93;1.95;;;28.80;92.30;;;;;;4992783;28;20022;-71
2022/07/15 09:41:43;;;;;;;4.95;1.80;;;28.80;91.50;;;;;;4994304;28;20161;-71
2022/07/15 09:44:16;;;;;;;7.15;1.70;;;28.90;92.20;;;;;;4993088;28;20018;-71
2022/07/15 09:46:46;;;;;;;7.03;2.20;;;29.00;94.10;;;;;;4989372;28;20030;-71
2022/07/15 09:49:15;;;;;;;5.57;1.98;;;29.00;93.90;;;;;;4993965;28;20490;-72
2022/07/15 09:52:02;;;;;;;4.40;1.70;;;29.00;94.30;;;;;;4992057;28;20034;-72
2022/07/15 09:54:31;;;;;;;10.43;2.28;;;28.90;95.40;;;;;;4979734;28;20548;-72
2022/07/15 09:57:02;;;;;;;7.82;2.00;;;29.00;95.30;;;;;;4992516;28;20033;-72
2022/07/15 09:59:29;;;;;;;2.97;1.77;;;29.00;93.70;;;;;;4978476;28;20030;-73
2022/07/15 10:01:55;;;;;;;6.10;1.92;;;28.90;94.10;;;;;;4991273;28;20627;-71
2022/07/15 10:04:23;;;;;;;7.15;1.70;;;29.00;93.60;;;;;;4992493;28;20053;-71
2022/07/15 10:06:52;;;;;;;4.65;1.73;;;29.00;92.60;;;;;;4992448;28;20029;-71
2022/07/15 10:09:26;;;;;;;4.22;1.50;;;29.20;92.10;;;;;;4992380;28;20116;-72
2022/07/15 10:11:54;;;;;;;4.80;1.55;;;29.20;91.20;;;;;;4993868;28;20026;-72
2022/07/15 10:14:22;;;;;;;2.13;1.00;;;29.30;89.90;;;;;;4992175;28;20076;-72
2022/07/15 10:16:48;;;;;;;1.38;1.10;;;29.30;90.20;;;;;;4992389;28;20024;-72
2022/07/15 10:19:19;;;;;;;2.58;1.48;;;29.30;90.60;;;;;;4993457;28;20030;-72
2022/07/15 10:22:04;;;;;;;7.38;1.70;;;29.40;88.70;;;;;;4992203;28;20022;-72
2022/07/15 10:24:56;;;;;;;5.88;1.50;;;29.50;86.70;;;;;;4978071;28;20052;-72
2022/07/15 10:27:56;;;;;;;2.08;1.65;;;29.40;88.70;;;;;;4991169;28;20030;-71
2022/07/15 10:30:24;;;;;;;1.63;1.10;;;29.30;89.40;;;;;;4988392;28;20042;-72
2022/07/15 10:33:13;;;;;;;1.90;1.40;;;29.30;83.60;;;;;;4989160;28;20477;-71
2022/07/15 10:35:53;;;;;;;3.75;1.50;;;29.30;84.30;;;;;;4991647;28;20565;-71
2022/07/15 10:38:36;;;;;;;3.60;1.20;;;29.40;84.70;;;;;;4992160;28;20027;-71
2022/07/15 10:41:14;;;;;;;2.13;1.27;;;29.40;82.00;;;;;;4994034;28;20037;-71
2022/07/15 10:43:52;;;;;;;2.55;1.40;;;29.50;85.10;;;;;;4992295;28;20029;-72
2022/07/15 10:46:21;;;;;;;4.43;1.40;;;29.50;85.60;;;;;;5004270;28;20113;-72
2022/07/15 10:48:59;;;;;;;4.47;1.52;;;29.60;85.50;;;;;;4991820;28;20046;-72
2022/07/15 10:51:37;;;;;;;7.30;1.60;;;29.60;91.20;;;;;;4991665;28;20493;-72
2022/07/15 10:54:04;;;;;;;1.35;1.25;;;29.40;90.80;;;;;;4991274;28;20053;-71
2022/07/15 10:56:30;;;;;;;4.90;1.25;;;29.40;88.50;;;;;;4990480;28;20042;-72
2022/07/15 10:59:24;;;;;;;9.55;1.20;;;29.40;88.80;;;;;;4991943;28;20026;-73
2022/07/15 11:02:13;;;;;;;5.22;1.10;;;29.30;83.90;;;;;;4988355;28;20117;-73
2022/07/15 11:04:40;;;;;;;2.33;0.98;;;29.30;79.60;;;;;;4980072;28;20077;-72
2022/07/15 11:07:09;;;;;;;0.93;0.75;;;29.30;78.70;;;;;;4991409;28;20392;-72
2022/07/15 11:09:44;;;;;;;3.13;0.80;;;29.10;75.60;;;;;;4991506;28;20026;-73
2022/07/15 11:12:10;;;;;;;2.85;0.85;;;29.10;77.90;;;;;;4992642;28;20033;-72
2022/07/15 11:14:43;;;;;;;2.00;0.80;;;29.20;80.30;;;;;;4990187;28;20042;-72
2022/07/15 11:17:13;;;;;;;2.55;1.00;;;29.20;83.10;;;;;;4990649;28;20026;-72
2022/07/15 11:19:39;;;;;;;1.63;0.90;;;29.20;81.70;;;;;;4992804;28;20113;-73
2022/07/15 11:22:08;;;;;;;1.77;1.10;;;29.10;84.20;;;;;;4991403;28;20098;-72
2022/07/15 11:24:37;;;;;;;1.50;1.10;;;29.20;88.30;;;;;;4991250;28;20030;-72
2022/07/15 11:27:03;;;;;;;3.53;1.17;;;29.10;86.60;;;;;;4990088;28;20022;-72
2022/07/15 11:29:42;;;;;;;1.17;1.08;;;29.00;90.60;;;;;;4991415;28;20022;-72
2022/07/15 11:32:08;;;;;;;6.18;1.58;;;29.10;92.00;;;;;;4990254;28;20084;-72
2022/07/15 11:34:43;;;;;;;1.80;1.00;;;29.20;90.90;;;;;;4990003;28;20042;-73
2022/07/15 11:37:18;;;;;;;5.65;1.20;;;29.30;90.70;;;;;;4990245;28;20050;-73
2022/07/15 11:39:48;;;;;;;2.08;1.35;;;29.30;92.10;;;;;;4989548;28;20027;-73
2022/07/15 11:45:07;;;;;;;2.67;1.40;;;29.10;93.70;;;;;;4983431;28;20036;-72
2022/07/15 11:47:34;;;;;;;1.30;1.15;;;29.10;94.70;;;;;;4989630;28;20030;-74
2022/07/15 11:50:01;;;;;;;1.48;1.30;;;29.10;94.30;;;;;;4991829;28;20389;-73
2022/07/15 11:52:27;;;;;;;1.83;1.10;;;29.30;95.10;;;;;;4991070;28;20023;-73
2022/07/15 11:54:53;;;;;;;1.90;1.10;;;29.50;95.80;;;;;;4989607;28;20050;-73
2022/07/15 11:57:18;;;;;;;2.38;1.02;;;29.40;94.60;;;;;;4991284;28;20030;-72
2022/07/15 11:59:55;;;;;;;1.30;1.05;;;29.30;93.30;;;;;;4989797;28;20446;-72
2022/07/15 12:02:24;;;;;;;1.83;1.20;;;29.40;94.60;;;;;;4990774;28;20026;-73
2022/07/15 12:04:50;;;;;;;1.08;0.98;;;29.40;93.40;;;;;;4989779;28;20493;-73
2022/07/15 12:07:16;;;;;;;2.35;1.30;;;29.30;92.90;;;;;;4989718;28;20030;-73
2022/07/15 12:09:51;;;;;;;3.45;1.10;;;29.50;93.90;;;;;;4991026;28;20030;-74
2022/07/15 12:12:17;;;;;;;1.65;0.70;;;30.10;91.70;;;;;;4993737;28;20025;-72
2022/07/15 12:14:48;;;;;;;1.60;1.15;;;31.20;87.60;;;;;;4990924;28;20400;-72
2022/07/15 12:17:15;;;;;;;1.20;1.07;;;32.60;91.50;;;;;;4990911;28;20113;-72
2022/07/15 12:19:47;;;;;;;2.20;1.33;;;34.10;88.50;;;;;;4992009;28;20309;-74
2022/07/15 12:22:13;;;;;;;1.25;0.93;;;34.90;83.80;;;;;;4990291;28;20049;-71
2022/07/15 12:24:45;;;;;;;1.25;0.90;;;35.00;82.80;;;;;;4991816;28;20030;-73
2022/07/15 12:27:12;;;;;;;1.40;0.90;;;35.60;82.90;;;;;;4993690;28;20080;-70
2022/07/15 12:29:38;;;;;;;5.57;1.02;;;36.60;79.30;;;;;;4994356;28;20058;-70
2022/07/15 12:32:09;;;;;;;2.97;1.00;;;36.70;80.50;;;;;;4994331;28;20061;-71
2022/07/15 12:34:47;;;;;;;;;;;36.50;77.80;;;;;;4994882;28;20444;-73
2022/07/15 12:37:23;;;;;;;0.82;0.73;;;36.80;77.30;;;;;;4993879;28;19913;-71
2022/07/15 12:40:06;;;;;;;3.38;1.10;;;37.40;74.70;;;;;;4993887;28;20034;-72
2022/07/15 12:42:44;;;;;;;0.95;0.77;;;38.10;74.70;;;;;;4994773;28;20034;-71
2022/07/15 12:45:12;;;;;;;0.77;0.77;;;38.30;73.60;;;;;;4993791;28;20076;-72
2022/07/15 12:48:07;;;;;;;1.38;0.77;;;38.60;71.60;;;;;;4993876;28;20408;-74
2022/07/15 12:50:36;;;;;;;1.92;1.05;;;39.00;70.10;;;;;;4993538;28;20026;-73
2022/07/15 12:53:02;;;;;;;1.42;1.15;;;39.60;67.90;;;;;;4994136;28;20039;-73
2022/07/15 12:55:31;;;;;;;1.38;0.77;;;40.30;69.50;;;;;;4991593;28;20068;-72
2022/07/15 12:58:04;;;;;;;0.93;0.90;;;40.60;66.50;;;;;;4994067;28;20018;-72
2022/07/15 13:00:30;;;;;;;4.13;1.00;;;40.90;63.10;;;;;;4992973;28;20030;-72